createdAt,value
2023-04-23T00:00:27.098Z,17.30
2023-04-23T00:03:33.426Z,17.20
2023-04-23T00:06:36.570Z,17.20
2023-04-23T00:09:38.734Z,17.10
2023-04-23T00:12:41.232Z,17.00
2023-04-23T00:15:43.456Z,16.90
2023-04-23T00:18:45.303Z,16.90
2023-04-23T00:21:47.139Z,16.90
2023-04-23T00:24:49.239Z,16.90
2023-04-23T00:27:51.159Z,16.90
2023-04-23T00:30:53.212Z,16.80
2023-04-23T00:33:56.049Z,16.80
2023-04-23T00:36:57.903Z,16.70
2023-04-23T00:39:59.657Z,16.70
2023-04-23T00:43:02.325Z,16.70
2023-04-23T00:46:04.994Z,16.70
2023-04-23T00:49:07.747Z,16.60
2023-04-23T00:52:09.542Z,16.60
2023-04-23T00:55:11.355Z,16.60
2023-04-23T00:58:13.191Z,16.60
2023-04-23T01:01:15.366Z,16.60
2023-04-23T01:04:19.091Z,16.60
2023-04-23T01:07:22.019Z,16.50
2023-04-23T01:10:24.470Z,16.50
2023-04-23T01:13:29.648Z,16.50
2023-04-23T01:16:31.753Z,16.40
2023-04-23T01:19:33.730Z,16.40
2023-04-23T01:22:37.939Z,16.30
2023-04-23T01:25:39.850Z,16.30
2023-04-23T01:28:43.709Z,16.30
2023-04-23T01:31:46.603Z,16.30
2023-04-23T01:34:49.217Z,16.20
2023-04-23T01:37:54.344Z,16.20
2023-04-23T01:40:56.440Z,16.10
2023-04-23T01:43:58.678Z,16.10
2023-04-23T01:47:03.594Z,16.10
2023-04-23T01:50:07.663Z,16.10
2023-04-23T01:53:09.609Z,16.00
2023-04-23T01:56:13.041Z,16.00
2023-04-23T01:59:15.092Z,15.90
2023-04-23T02:02:17.094Z,15.90
2023-04-23T02:05:20.338Z,15.90
2023-04-23T02:08:22.830Z,15.80
2023-04-23T02:11:25.323Z,15.80
2023-04-23T02:14:27.334Z,15.80
2023-04-23T02:17:29.435Z,15.70
2023-04-23T02:20:31.407Z,15.70
2023-04-23T02:23:33.278Z,15.70
2023-04-23T02:26:35.144Z,15.70
2023-04-23T02:29:41.266Z,15.70
2023-04-23T02:32:44.151Z,15.60
2023-04-23T02:35:46.380Z,15.60
2023-04-23T02:38:51.021Z,15.60
2023-04-23T02:41:52.952Z,15.60
2023-04-23T02:44:54.738Z,15.60
2023-04-23T02:47:56.572Z,15.50
2023-04-23T02:50:58.308Z,15.50
2023-04-23T02:54:00.195Z,15.40
2023-04-23T02:57:02.215Z,15.40
2023-04-23T03:00:07.206Z,15.40
2023-04-23T03:03:11.225Z,15.30
2023-04-23T03:06:14.336Z,15.30
2023-04-23T03:09:16.539Z,15.20
2023-04-23T03:12:18.590Z,15.20
2023-04-23T03:15:20.866Z,15.20
2023-04-23T03:18:23.492Z,15.10
2023-04-23T03:21:25.459Z,15.10
2023-04-23T03:24:27.411Z,15.10
2023-04-23T03:27:29.569Z,15.00
2023-04-23T03:30:32.063Z,15.00
2023-04-23T03:33:34.210Z,15.00
2023-04-23T03:36:36.038Z,14.90
2023-04-23T03:39:38.399Z,14.90
2023-04-23T03:42:40.326Z,14.80
2023-04-23T03:45:42.374Z,14.80
2023-04-23T03:48:44.287Z,14.70
2023-04-23T03:51:46.168Z,14.70
2023-04-23T03:54:48.032Z,14.60
2023-04-23T03:57:50.537Z,14.60
2023-04-23T04:00:52.370Z,14.60
2023-04-23T04:03:54.352Z,14.50
2023-04-23T04:06:56.768Z,14.40
2023-04-23T04:09:58.577Z,14.40
2023-04-23T04:13:00.538Z,14.30
2023-04-23T04:16:02.567Z,14.30
2023-04-23T04:19:04.499Z,14.30
2023-04-23T04:22:07.135Z,14.30
2023-04-23T04:25:10.119Z,14.20
2023-04-23T04:28:12.067Z,14.20
2023-04-23T04:31:16.048Z,14.10
2023-04-23T04:34:18.142Z,14.00
2023-04-23T04:37:21.528Z,13.90
2023-04-23T04:40:23.359Z,13.90
2023-04-23T04:43:25.164Z,13.90
2023-04-23T04:46:29.047Z,13.80
2023-04-23T04:49:34.083Z,13.80
2023-04-23T04:52:36.620Z,13.70
2023-04-23T04:55:40.827Z,13.70
2023-04-23T04:58:42.778Z,13.70
2023-04-23T05:01:44.825Z,13.70
2023-04-23T05:04:46.784Z,13.70
2023-04-23T05:07:48.835Z,13.60
2023-04-23T05:10:51.584Z,13.70
2023-04-23T05:13:53.368Z,13.70
2023-04-23T05:16:55.489Z,13.60
2023-04-23T05:19:57.451Z,13.60
2023-04-23T05:23:00.010Z,13.60
2023-04-23T05:26:03.828Z,13.60
2023-04-23T05:29:14.701Z,13.60
2023-04-23T05:32:16.598Z,13.60
2023-04-23T05:35:21.425Z,13.60
2023-04-23T05:38:23.413Z,13.50
2023-04-23T05:41:26.093Z,13.50
2023-04-23T05:44:27.873Z,13.50
2023-04-23T05:47:29.895Z,13.40
2023-04-23T05:50:34.850Z,13.40
2023-04-23T05:53:36.850Z,13.40
2023-04-23T05:56:38.670Z,13.40
2023-04-23T05:59:40.694Z,13.50
2023-04-23T06:02:42.718Z,13.40
2023-04-23T06:05:44.864Z,13.50
2023-04-23T06:08:46.740Z,13.50
2023-04-23T06:11:50.675Z,13.50
2023-04-23T06:14:53.401Z,13.50
2023-04-23T06:17:55.231Z,13.50
2023-04-23T06:20:58.486Z,13.40
2023-04-23T06:24:00.504Z,13.40
2023-04-23T06:27:02.813Z,13.50
2023-04-23T06:30:05.214Z,13.40
2023-04-23T06:33:09.250Z,13.50
2023-04-23T06:36:11.351Z,13.50
2023-04-23T06:39:13.153Z,13.50
2023-04-23T06:42:34.408Z,13.50
2023-04-23T06:45:36.355Z,13.60
2023-04-23T06:48:39.020Z,13.70
2023-04-23T06:51:41.378Z,13.80
2023-04-23T06:54:43.829Z,13.80
2023-04-23T06:57:46.175Z,13.90
2023-04-23T07:00:48.702Z,13.90
2023-04-23T07:03:52.500Z,13.80
2023-04-23T07:06:54.395Z,13.80
2023-04-23T07:09:56.338Z,13.80
2023-04-23T07:12:58.218Z,13.80
2023-04-23T07:16:00.353Z,13.70
2023-04-23T07:19:02.809Z,13.70
2023-04-23T07:22:04.685Z,13.70
2023-04-23T07:25:08.664Z,13.70
2023-04-23T07:28:10.509Z,13.70
2023-04-23T07:31:12.541Z,13.70
2023-04-23T07:34:14.749Z,13.60
2023-04-23T07:37:16.854Z,13.60
2023-04-23T07:40:18.685Z,13.60
2023-04-23T07:43:23.633Z,13.60
2023-04-23T07:46:25.553Z,13.60
2023-04-23T07:49:28.555Z,13.70
2023-04-23T07:52:30.935Z,13.70
2023-04-23T07:55:32.882Z,13.80
2023-04-23T07:58:35.537Z,13.80
2023-04-23T08:01:37.596Z,13.90
2023-04-23T08:04:39.762Z,14.00
2023-04-23T08:07:42.082Z,14.10
2023-04-23T08:10:43.950Z,14.40
2023-04-23T08:13:45.789Z,14.70
2023-04-23T08:16:47.864Z,15.10
2023-04-23T08:19:49.649Z,15.70
2023-04-23T08:22:53.680Z,16.10
2023-04-23T08:25:55.839Z,16.60
2023-04-23T08:28:58.129Z,16.90
2023-04-23T08:32:00.482Z,17.20
2023-04-23T08:35:02.846Z,17.40
2023-04-23T08:38:04.767Z,17.40
2023-04-23T08:41:10.130Z,17.40
2023-04-23T08:44:21.872Z,17.30
2023-04-23T08:47:27.907Z,17.20
2023-04-23T08:50:31.109Z,17.20
2023-04-23T08:53:33.662Z,17.40
2023-04-23T08:56:37.258Z,17.50
2023-04-23T08:59:41.051Z,17.70
2023-04-23T09:02:46.039Z,17.70
2023-04-23T09:05:48.299Z,18.00
2023-04-23T09:08:50.813Z,18.30
2023-04-23T09:11:54.739Z,18.60
2023-04-23T09:14:57.362Z,18.70
2023-04-23T09:18:00.736Z,18.90
2023-04-23T09:21:04.358Z,19.20
2023-04-23T09:24:06.592Z,19.50
2023-04-23T09:27:08.599Z,19.70
2023-04-23T09:30:11.989Z,19.80
2023-04-23T09:33:16.418Z,19.80
2023-04-23T09:36:22.120Z,19.60
2023-04-23T09:39:24.373Z,19.40
2023-04-23T09:42:28.421Z,19.10
2023-04-23T09:45:30.806Z,18.80
2023-04-23T09:48:42.841Z,18.50
2023-04-23T09:51:47.456Z,18.30
2023-04-23T09:54:49.705Z,18.10
2023-04-23T09:57:53.473Z,18.00
2023-04-23T10:01:07.946Z,17.80
2023-04-23T10:04:13.194Z,17.70
2023-04-23T10:07:20.271Z,17.70
2023-04-23T10:10:22.626Z,17.60
2023-04-23T10:13:25.939Z,17.60
2023-04-23T10:16:35.604Z,17.60
2023-04-23T10:19:45.150Z,17.60
2023-04-23T10:22:47.582Z,17.60
2023-04-23T10:25:50.676Z,17.70
2023-04-23T10:28:56.255Z,17.70
2023-04-23T10:32:03.032Z,17.70
2023-04-23T10:35:06.498Z,17.70
2023-04-23T10:38:08.644Z,17.70
2023-04-23T10:41:12.167Z,17.80
2023-04-23T10:44:17.243Z,17.90
2023-04-23T10:47:22.716Z,18.00
2023-04-23T10:50:36.038Z,18.10
2023-04-23T10:53:37.997Z,18.30
2023-04-23T10:56:41.534Z,18.40
2023-04-23T10:59:54.699Z,18.50
2023-04-23T11:02:56.849Z,18.60
2023-04-23T11:06:05.492Z,18.60
2023-04-23T11:09:38.813Z,18.60
2023-04-23T11:12:41.224Z,18.60
2023-04-23T11:15:43.065Z,18.60
2023-04-23T11:19:08.381Z,18.50
2023-04-23T11:22:14.388Z,18.40
2023-04-23T11:25:26.962Z,18.40
2023-04-23T11:28:32.417Z,18.30
2023-04-23T11:31:35.081Z,18.40
2023-04-23T11:34:44.138Z,18.40
2023-04-23T11:37:50.130Z,18.50
2023-04-23T11:40:53.573Z,18.50
2023-04-23T11:43:56.252Z,18.40
2023-04-23T11:47:02.734Z,18.40
2023-04-23T11:50:05.317Z,18.30
2023-04-23T11:53:11.373Z,18.30
2023-04-23T11:56:16.048Z,18.20
2023-04-23T11:59:17.900Z,18.10
2023-04-23T12:02:19.899Z,18.10
2023-04-23T12:05:44.155Z,18.10
2023-04-23T12:08:47.268Z,18.10
2023-04-23T12:11:52.902Z,18.10
2023-04-23T12:15:07.357Z,18.10
2023-04-23T12:18:11.053Z,18.20
2023-04-23T12:21:14.326Z,18.30
2023-04-23T12:24:16.536Z,18.50
2023-04-23T12:27:22.067Z,18.60
2023-04-23T12:30:28.937Z,18.70
2023-04-23T12:33:31.520Z,18.80
2023-04-23T12:36:35.021Z,18.80
2023-04-23T12:39:37.294Z,18.80
2023-04-23T12:42:39.133Z,18.90
2023-04-23T12:45:41.098Z,19.00
2023-04-23T12:48:43.101Z,19.10
2023-04-23T12:51:47.357Z,19.20
2023-04-23T12:54:56.986Z,19.20
2023-04-23T12:57:59.848Z,19.30
2023-04-23T13:01:01.960Z,19.20
2023-04-23T13:04:06.822Z,19.20
2023-04-23T13:07:09.557Z,19.10
2023-04-23T13:10:11.396Z,19.00
2023-04-23T13:13:13.303Z,19.00
2023-04-23T13:16:15.368Z,18.80
2023-04-23T13:19:17.571Z,18.70
2023-04-23T13:22:21.461Z,18.70
2023-04-23T13:25:23.520Z,18.60
2023-04-23T13:28:25.377Z,18.70
2023-04-23T13:31:27.654Z,18.80
2023-04-23T13:34:30.862Z,18.80
2023-04-23T13:37:33.848Z,18.90
2023-04-23T13:40:36.705Z,18.90
2023-04-23T13:43:38.541Z,18.90
2023-04-23T13:46:40.843Z,18.90
2023-04-23T13:49:42.947Z,19.00
2023-04-23T13:52:45.017Z,19.00
2023-04-23T13:55:47.015Z,19.10
2023-04-23T13:58:48.972Z,19.10
2023-04-23T14:01:50.865Z,19.00
2023-04-23T14:04:53.229Z,19.00
2023-04-23T14:07:55.098Z,18.90
2023-04-23T14:10:56.987Z,18.80
2023-04-23T14:14:00.849Z,18.70
2023-04-23T14:17:02.617Z,18.80
2023-04-23T14:20:05.872Z,18.80
2023-04-23T14:23:22.886Z,18.80
2023-04-23T14:26:48.088Z,18.90
2023-04-23T14:30:02.371Z,19.00
2023-04-23T14:33:04.537Z,19.10
2023-04-23T14:36:06.582Z,19.20
2023-04-23T14:39:08.721Z,19.30
2023-04-23T14:42:10.676Z,19.30
2023-04-23T14:45:14.076Z,19.40
2023-04-23T14:48:16.012Z,19.40
2023-04-23T14:51:17.908Z,19.40
2023-04-23T14:54:20.587Z,19.40
2023-04-23T14:57:22.917Z,19.40
2023-04-23T15:00:24.957Z,19.50
2023-04-23T15:03:27.896Z,19.50
2023-04-23T15:06:30.151Z,19.60
2023-04-23T15:09:32.030Z,19.60
2023-04-23T15:12:48.901Z,19.50
2023-04-23T15:15:56.668Z,19.60
2023-04-23T15:19:00.338Z,19.50
2023-04-23T15:22:02.350Z,19.50
2023-04-23T15:25:04.490Z,19.40
2023-04-23T15:28:07.166Z,19.30
2023-04-23T15:31:09.931Z,19.20
2023-04-23T15:34:12.651Z,19.20
2023-04-23T15:37:15.600Z,19.10
2023-04-23T15:40:17.897Z,19.10
2023-04-23T15:43:19.736Z,19.10
2023-04-23T15:46:21.769Z,19.10
2023-04-23T15:49:23.560Z,19.10
2023-04-23T15:52:26.583Z,19.20
2023-04-23T15:55:29.230Z,19.20
2023-04-23T15:58:31.992Z,19.30
2023-04-23T16:01:34.226Z,19.20
2023-04-23T16:04:36.429Z,19.10
2023-04-23T16:07:38.734Z,19.10
2023-04-23T16:10:40.583Z,19.10
2023-04-23T16:13:42.623Z,19.00
2023-04-23T16:16:44.684Z,19.00
2023-04-23T16:19:46.653Z,19.00
2023-04-23T16:22:48.601Z,18.90
2023-04-23T16:25:50.819Z,18.90
2023-04-23T16:29:05.402Z,18.80
2023-04-23T16:32:14.033Z,18.80
2023-04-23T16:35:16.155Z,18.70
2023-04-23T16:38:18.401Z,18.70
2023-04-23T16:41:20.853Z,18.70
2023-04-23T16:44:22.667Z,18.60
2023-04-23T16:47:24.452Z,18.60
2023-04-23T16:50:26.186Z,18.50
2023-04-23T16:53:28.309Z,18.50
2023-04-23T16:56:31.081Z,18.40
2023-04-23T16:59:33.698Z,18.40
2023-04-23T17:02:37.075Z,18.30
2023-04-23T17:05:42.785Z,18.30
2023-04-23T17:08:44.614Z,18.20
2023-04-23T17:11:46.721Z,18.20
2023-04-23T17:14:48.993Z,18.20
2023-04-23T17:17:51.704Z,18.10
2023-04-23T17:20:54.710Z,18.10
2023-04-23T17:23:56.526Z,18.10
2023-04-23T17:26:58.807Z,18.00
2023-04-23T17:30:00.520Z,18.00
2023-04-23T17:33:02.683Z,18.00
2023-04-23T17:36:04.715Z,17.90
2023-04-23T17:39:07.695Z,17.90
2023-04-23T17:42:09.594Z,17.80
2023-04-23T17:45:11.820Z,17.70
2023-04-23T17:48:14.885Z,17.70
2023-04-23T17:51:16.849Z,17.60
2023-04-23T17:54:18.868Z,17.60
2023-04-23T17:57:20.643Z,17.50
2023-04-23T18:00:23.229Z,17.50
2023-04-23T18:03:26.677Z,17.40
2023-04-23T18:06:28.962Z,17.40
2023-04-23T18:09:30.715Z,17.30
2023-04-23T18:12:33.063Z,17.30
2023-04-23T18:15:35.661Z,17.20
2023-04-23T18:18:37.604Z,17.20
2023-04-23T18:21:39.875Z,17.10
2023-04-23T18:24:41.934Z,17.00
2023-04-23T18:27:43.751Z,16.90
2023-04-23T18:30:45.857Z,16.80
2023-04-23T18:33:58.785Z,16.80
2023-04-23T18:37:03.916Z,16.70
2023-04-23T18:40:06.982Z,16.60
2023-04-23T18:43:08.783Z,16.50
2023-04-23T18:46:10.715Z,16.50
2023-04-23T18:49:38.275Z,16.40
2023-04-23T18:52:40.224Z,16.40
2023-04-23T18:55:42.004Z,16.40
2023-04-23T18:58:43.950Z,16.30
2023-04-23T19:01:48.104Z,16.30
2023-04-23T19:04:50.102Z,16.20
2023-04-23T19:07:53.605Z,16.20
2023-04-23T19:10:57.393Z,16.10
2023-04-23T19:13:59.223Z,16.10
2023-04-23T19:17:01.238Z,16.00
2023-04-23T19:20:04.259Z,16.00
2023-04-23T19:23:06.194Z,15.90
2023-04-23T19:26:08.050Z,15.80
2023-04-23T19:29:10.045Z,15.80
2023-04-23T19:32:12.055Z,15.70
2023-04-23T19:35:13.847Z,15.70
2023-04-23T19:38:16.179Z,15.60
2023-04-23T19:41:18.009Z,15.60
2023-04-23T19:44:19.891Z,15.50
2023-04-23T19:47:21.832Z,15.50
2023-04-23T19:50:23.648Z,15.40
2023-04-23T19:53:27.042Z,15.50
2023-04-23T19:56:29.068Z,15.50
2023-04-23T19:59:30.896Z,15.40
2023-04-23T20:02:33.554Z,15.50
2023-04-23T20:05:35.601Z,15.40
2023-04-23T20:09:03.265Z,15.40
2023-04-23T20:12:05.402Z,15.20
2023-04-23T20:15:11.276Z,15.00
2023-04-23T20:18:13.776Z,14.80
2023-04-23T20:21:16.185Z,14.60
2023-04-23T20:24:18.454Z,14.50
2023-04-23T20:27:20.354Z,14.40
2023-04-23T20:30:22.259Z,14.20
2023-04-23T20:33:24.121Z,14.10
2023-04-23T20:36:31.551Z,14.00
2023-04-23T20:39:34.400Z,13.90
2023-04-23T20:42:39.174Z,13.80
2023-04-23T20:45:41.527Z,13.70
2023-04-23T20:48:43.419Z,13.60
2023-04-23T20:51:46.335Z,13.50
2023-04-23T20:54:48.129Z,13.50
2023-04-23T20:57:49.939Z,13.50
2023-04-23T21:00:51.834Z,13.40
2023-04-23T21:03:54.127Z,13.40
2023-04-23T21:06:56.251Z,13.40
2023-04-23T21:09:57.980Z,13.40
2023-04-23T21:12:59.947Z,13.30
2023-04-23T21:16:02.003Z,13.30
2023-04-23T21:19:16.555Z,13.30
2023-04-23T21:22:18.385Z,13.30
2023-04-23T21:25:20.313Z,13.30
2023-04-23T21:28:22.563Z,13.20
2023-04-23T21:31:45.225Z,13.20
2023-04-23T21:34:47.052Z,13.30
2023-04-23T21:37:48.868Z,13.20
2023-04-23T21:40:50.714Z,13.20
2023-04-23T21:43:52.487Z,13.20
2023-04-23T21:46:54.459Z,13.10
2023-04-23T21:49:56.750Z,13.10
2023-04-23T21:52:59.516Z,13.00
2023-04-23T21:56:01.323Z,13.00
2023-04-23T21:59:03.253Z,12.90
2023-04-23T22:02:05.122Z,12.80
2023-04-23T22:05:07.274Z,12.80
2023-04-23T22:08:09.679Z,12.70
2023-04-23T22:11:11.674Z,12.70
2023-04-23T22:14:13.603Z,12.60
2023-04-23T22:17:18.279Z,12.50
2023-04-23T22:20:23.710Z,12.50
2023-04-23T22:23:25.600Z,12.40
2023-04-23T22:26:27.530Z,12.40
2023-04-23T22:29:29.332Z,12.30
2023-04-23T22:32:31.837Z,12.30
2023-04-23T22:35:33.903Z,12.20
2023-04-23T22:38:35.809Z,12.10
2023-04-23T22:41:40.578Z,12.10
2023-04-23T22:44:43.141Z,12.10
2023-04-23T22:47:44.974Z,12.00
2023-04-23T22:50:47.096Z,12.00
2023-04-23T22:53:48.896Z,12.00
2023-04-23T22:56:50.830Z,11.90
2023-04-23T22:59:52.630Z,11.90
2023-04-23T23:02:54.477Z,11.90
2023-04-23T23:05:56.300Z,11.90
2023-04-23T23:08:58.149Z,11.90
2023-04-23T23:12:02.475Z,11.90
2023-04-23T23:15:05.991Z,11.90
2023-04-23T23:18:07.904Z,11.80
2023-04-23T23:21:09.991Z,11.80
2023-04-23T23:24:11.984Z,11.80
2023-04-23T23:27:13.933Z,11.70
2023-04-23T23:30:16.282Z,11.70
2023-04-23T23:33:18.197Z,11.70
2023-04-23T23:36:20.203Z,11.60
2023-04-23T23:39:22.354Z,11.60
2023-04-23T23:42:24.344Z,11.30
2023-04-23T23:45:26.843Z,11.40
2023-04-23T23:48:30.286Z,11.50
2023-04-23T23:51:32.416Z,11.50
2023-04-23T23:54:34.200Z,11.40
2023-04-23T23:57:36.981Z,11.40
